Time;durP1;ratioP1;P1;durP2;ratioP2;P2;SDS_P1;SDS_P2;PMS_P1;PMS_P2;Temp;Humidity;BMP_temperature;BMP_pressure;BME280_temperature;BME280_humidity;BME280_pressure;Samples;Min_cycle;Max_cycle;Signal;HPM_P1;HPM_P2
2023/05/25 00:00:07;;;;;;;11.15;4.80;;;;;;;9.87;100.00;102469.78;4989628;28;20078;-71
2023/05/25 00:02:33;;;;;;;12.30;4.10;;;;;;;9.82;100.00;102469.38;4989579;28;20124;-71
2023/05/25 00:04:59;;;;;;;18.23;4.93;;;;;;;9.80;100.00;102469.56;4989783;28;20026;-71
2023/05/25 00:07:25;;;;;;;16.70;4.40;;;;;;;9.77;100.00;102469.88;4989477;28;20497;-71
2023/05/25 00:09:50;;;;;;;13.27;5.07;;;;;;;9.72;100.00;102468.63;4989941;28;20239;-71
2023/05/25 00:12:16;;;;;;;11.75;5.00;;;;;;;9.67;100.00;102461.09;4989318;28;20034;-71
2023/05/25 00:14:41;;;;;;;14.45;5.00;;;;;;;9.67;100.00;102463.75;4971789;28;20030;-71
2023/05/25 00:17:09;;;;;;;13.73;4.97;;;;;;;9.58;100.00;102457.50;4989325;28;20042;-70
2023/05/25 00:19:35;;;;;;;16.60;5.63;;;;;;;9.62;100.00;102474.88;4989210;28;20034;-70
2023/05/25 00:22:03;;;;;;;11.95;4.72;;;;;;;9.56;100.00;102479.94;4989313;28;20038;-70
2023/05/25 00:24:29;;;;;;;13.00;4.80;;;;;;;9.55;100.00;102471.13;4989373;28;20030;-70
2023/05/25 00:26:56;;;;;;;24.98;4.65;;;;;;;9.51;100.00;102474.22;4989257;28;20026;-70
2023/05/25 00:29:21;;;;;;;11.93;5.57;;;;;;;9.52;100.00;102473.25;4989116;28;20573;-70
2023/05/25 00:31:47;;;;;;;11.02;4.72;;;;;;;9.51;100.00;102468.91;4970646;28;20042;-70
2023/05/25 00:34:12;;;;;;;11.70;5.10;;;;;;;9.48;100.00;102466.53;4970656;28;20446;-70
2023/05/25 00:36:37;;;;;;;17.42;5.68;;;;;;;9.43;100.00;102472.31;4959341;28;20034;-70
2023/05/25 00:39:03;;;;;;;11.00;5.07;;;;;;;9.41;100.00;102472.47;4989246;28;20034;-70
2023/05/25 00:41:30;;;;;;;22.08;5.15;;;;;;;9.37;100.00;102470.25;4989105;28;20482;-70
2023/05/25 00:43:56;;;;;;;12.98;4.97;;;;;;;9.39;100.00;102478.94;4971500;28;20109;-70
2023/05/25 00:46:22;;;;;;;8.38;4.32;;;;;;;9.30;100.00;102466.50;4989048;28;20117;-70
2023/05/25 00:48:47;;;;;;;12.80;4.88;;;;;;;9.28;100.00;102465.81;4989010;28;20030;-70
2023/05/25 00:51:14;;;;;;;9.93;4.90;;;;;;;9.28;100.00;102473.81;4988977;28;20034;-70
2023/05/25 00:53:40;;;;;;;9.27;4.82;;;;;;;9.26;100.00;102471.28;4988986;28;20037;-70
2023/05/25 00:56:22;;;;;;;13.73;5.45;;;;;;;9.22;100.00;102467.22;4988893;28;20041;-70
2023/05/25 00:58:52;;;;;;;11.05;3.92;;;;;;;9.22;100.00;102475.22;4970432;28;20066;-70
2023/05/25 01:01:19;;;;;;;15.02;4.78;;;;;;;9.11;100.00;102457.63;4977626;28;20038;-70
2023/05/25 01:03:52;;;;;;;12.65;5.38;;;;;;;9.16;100.00;102473.16;4988888;28;20038;-70
2023/05/25 01:06:20;;;;;;;10.90;5.55;;;;;;;9.19;100.00;102483.50;4988939;28;20061;-70
2023/05/25 01:08:55;;;;;;;12.80;4.47;;;;;;;9.15;100.00;102471.50;4988996;28;20438;-70
2023/05/25 01:11:25;;;;;;;9.07;4.40;;;;;;;9.17;100.00;102474.84;4988882;28;20031;-70
2023/05/25 01:13:52;;;;;;;10.27;4.32;;;;;;;9.13;100.00;102476.13;4988848;28;20045;-70
2023/05/25 01:16:19;;;;;;;10.43;5.18;;;;;;;9.14;100.00;102477.78;4988708;28;20026;-70
2023/05/25 01:18:46;;;;;;;11.70;4.53;;;;;;;9.11;100.00;102481.56;4988985;28;20038;-70
2023/05/25 01:21:20;;;;;;;14.95;5.63;;;;;;;9.07;100.00;102485.53;4988858;28;20034;-70
2023/05/25 01:23:54;;;;;;;14.63;4.82;;;;;;;9.06;100.00;102485.66;4988790;28;20540;-70
2023/05/25 01:26:25;;;;;;;11.35;4.05;;;;;;;9.02;100.00;102487.78;4988855;28;20030;-70
2023/05/25 01:28:52;;;;;;;13.83;4.90;;;;;;;9.04;100.00;102488.50;4989047;28;20037;-70
2023/05/25 01:31:21;;;;;;;11.65;4.05;;;;;;;9.03;100.00;102500.09;4988804;28;20096;-70
2023/05/25 01:33:50;;;;;;;12.07;4.82;;;;;;;8.96;100.00;102493.69;4988640;28;20038;-70
2023/05/25 01:36:16;;;;;;;12.23;4.68;;;;;;;8.98;100.00;102507.69;4988599;28;20022;-70
2023/05/25 01:38:41;;;;;;;12.27;4.32;;;;;;;8.95;100.00;102511.47;4988723;28;20080;-70
2023/05/25 01:41:07;;;;;;;10.90;5.18;;;;;;;8.92;100.00;102503.78;4991643;28;20045;-70
2023/05/25 01:43:32;;;;;;;10.30;5.03;;;;;;;8.89;100.00;102503.25;4992132;28;20504;-70
2023/05/25 01:46:09;;;;;;;10.38;5.40;;;;;;;8.90;100.00;102507.56;4992076;28;20138;-70
2023/05/25 01:48:56;;;;;;;13.93;4.35;;;;;;;8.89;100.00;102503.25;4992058;28;20207;-70
2023/05/25 01:51:35;;;;;;;9.73;4.68;;;;;;;8.87;100.00;102505.22;4992081;28;20064;-70
2023/05/25 01:54:10;;;;;;;17.58;5.10;;;;;;;8.84;100.00;102508.16;4973610;28;20041;-70
2023/05/25 01:56:36;;;;;;;13.23;4.10;;;;;;;8.76;100.00;102498.22;4991917;28;20026;-70
2023/05/25 01:59:03;;;;;;;9.73;4.13;;;;;;;8.75;100.00;102501.84;4991618;28;20030;-70
2023/05/25 02:01:30;;;;;;;16.65;5.80;;;;;;;8.77;100.00;102508.72;4992090;28;20041;-70
2023/05/25 02:03:56;;;;;;;12.43;5.20;;;;;;;8.74;100.00;102506.34;4992016;28;20375;-70
2023/05/25 02:06:22;;;;;;;13.68;5.28;;;;;;;8.69;100.00;102507.75;4991696;28;20026;-70
2023/05/25 02:08:47;;;;;;;9.65;4.95;;;;;;;8.67;100.00;102507.94;4986051;28;20617;-70
2023/05/25 02:11:13;;;;;;;12.48;5.93;;;;;;;8.59;100.00;102498.97;4972989;28;20031;-70
2023/05/25 02:13:39;;;;;;;9.40;4.63;;;;;;;8.66;100.00;102508.06;4973008;28;20027;-70
2023/05/25 02:16:05;;;;;;;11.25;3.95;;;;;;;8.65;100.00;102503.72;4973123;28;20026;-70
2023/05/25 02:18:30;;;;;;;11.05;4.53;;;;;;;8.62;100.00;102504.84;4972845;28;20035;-70
2023/05/25 02:20:56;;;;;;;10.52;5.05;;;;;;;8.63;100.00;102505.69;4972771;28;20518;-70
2023/05/25 02:23:21;;;;;;;11.73;5.43;;;;;;;8.56;100.00;102502.75;4972900;28;20027;-70
2023/05/25 02:25:47;;;;;;;19.83;5.35;;;;;;;8.58;100.00;102510.59;4972842;28;20418;-70
2023/05/25 02:28:13;;;;;;;12.80;4.93;;;;;;;8.57;100.00;102515.06;4972615;28;20042;-70
2023/05/25 02:30:38;;;;;;;12.77;4.20;;;;;;;8.51;100.00;102508.50;4972642;28;20110;-70
2023/05/25 02:33:04;;;;;;;13.50;4.43;;;;;;;8.49;100.00;102497.19;4972645;28;20125;-70
2023/05/25 02:35:29;;;;;;;9.98;4.20;;;;;;;8.58;100.00;102498.13;4972268;28;20117;-70
2023/05/25 02:37:55;;;;;;;11.63;4.78;;;;;;;8.56;100.00;102502.75;4972502;28;20038;-70
2023/05/25 02:40:20;;;;;;;8.32;4.68;;;;;;;8.55;100.00;102501.06;4972475;28;20066;-70
2023/05/25 02:42:45;;;;;;;9.35;4.47;;;;;;;8.54;100.00;102502.03;4972507;28;20098;-70
2023/05/25 02:45:11;;;;;;;14.38;5.97;;;;;;;8.53;100.00;102503.88;4972420;28;20030;-69
2023/05/25 02:47:36;;;;;;;11.18;4.88;;;;;;;8.50;100.00;102498.84;4972341;28;20478;-69
2023/05/25 02:50:03;;;;;;;15.32;5.13;;;;;;;8.45;100.00;102497.59;4972226;28;20390;-69
2023/05/25 02:52:30;;;;;;;13.55;5.72;;;;;;;8.44;100.00;102504.72;4971263;28;20034;-69
2023/05/25 02:54:56;;;;;;;15.23;4.90;;;;;;;8.41;100.00;102510.34;4954799;28;20042;-69
2023/05/25 02:57:22;;;;;;;9.98;4.63;;;;;;;8.39;100.00;102506.13;4972094;28;20023;-69
2023/05/25 02:59:47;;;;;;;10.68;5.10;;;;;;;8.34;100.00;102510.03;4971916;28;20051;-69
2023/05/25 03:02:13;;;;;;;9.35;4.47;;;;;;;8.29;100.00;102516.75;4972114;28;20035;-69
2023/05/25 03:04:40;;;;;;;13.95;5.50;;;;;;;8.26;100.00;102514.38;4971922;28;20597;-69
2023/05/25 03:07:06;;;;;;;14.88;4.50;;;;;;;8.22;100.00;102513.78;4972050;28;20031;-69
2023/05/25 03:09:31;;;;;;;15.40;5.60;;;;;;;8.22;100.00;102513.78;4990767;28;20497;-69
2023/05/25 03:11:56;;;;;;;11.38;4.95;;;;;;;8.21;100.00;102521.94;4990510;28;20054;-69
2023/05/25 03:14:22;;;;;;;12.05;4.95;;;;;;;8.18;100.00;102520.38;4990384;28;20034;-69
2023/05/25 03:16:47;;;;;;;12.93;4.90;;;;;;;8.20;100.00;102528.19;4990431;28;20514;-69
2023/05/25 03:19:12;;;;;;;9.98;5.07;;;;;;;8.18;100.00;102524.88;4990141;28;20362;-69
2023/05/25 03:21:38;;;;;;;13.10;5.55;;;;;;;8.10;100.00;102523.75;4990331;28;20066;-69
2023/05/25 03:24:04;;;;;;;11.95;5.35;;;;;;;8.15;100.00;102536.63;4990310;28;20065;-69
2023/05/25 03:26:29;;;;;;;11.73;4.88;;;;;;;8.10;100.00;102528.22;4990103;28;20023;-69
2023/05/25 03:28:55;;;;;;;12.30;5.07;;;;;;;8.13;100.00;102535.91;4990339;28;20034;-69
2023/05/25 03:31:20;;;;;;;16.70;6.32;;;;;;;8.12;100.00;102532.41;4990254;28;20026;-69
2023/05/25 03:33:46;;;;;;;13.95;6.03;;;;;;;8.10;100.00;102544.16;4990044;28;20436;-69
2023/05/25 03:36:12;;;;;;;11.98;5.95;;;;;;;8.09;100.00;102545.13;4989993;28;20030;-69
2023/05/25 03:38:38;;;;;;;13.95;6.97;;;;;;;8.05;100.00;102552.53;4990053;28;20405;-69
2023/05/25 03:41:04;;;;;;;14.60;5.70;;;;;;;7.98;100.00;102547.91;4971145;28;20030;-69
2023/05/25 03:43:30;;;;;;;10.93;5.95;;;;;;;7.96;100.00;102553.34;4971628;28;20038;-69
2023/05/25 03:45:55;;;;;;;10.75;4.95;;;;;;;7.88;100.00;102558.50;4971333;28;20106;-69
2023/05/25 03:48:21;;;;;;;20.88;6.10;;;;;;;7.92;100.00;102556.44;4971211;28;20117;-69
2023/05/25 03:50:46;;;;;;;12.70;5.05;;;;;;;7.90;100.00;102562.72;4971392;28;20085;-69
2023/05/25 03:53:11;;;;;;;13.32;5.20;;;;;;;7.89;100.00;102571.66;4971446;28;20085;-69
2023/05/25 03:55:37;;;;;;;12.15;5.22;;;;;;;7.88;100.00;102566.47;4971170;28;20037;-69
2023/05/25 03:58:02;;;;;;;12.80;5.38;;;;;;;7.88;100.00;102561.16;4971136;28;20042;-69
2023/05/25 04:00:28;;;;;;;15.50;5.28;;;;;;;7.81;100.00;102552.94;4970889;28;20093;-69
2023/05/25 04:02:53;;;;;;;12.73;5.38;;;;;;;7.81;100.00;102552.94;4970765;28;20061;-69
2023/05/25 04:05:18;;;;;;;11.25;5.20;;;;;;;7.89;100.00;102566.34;4970945;28;20117;-69
2023/05/25 04:07:44;;;;;;;12.77;6.53;;;;;;;7.84;100.00;102557.13;4971123;28;20110;-69
2023/05/25 04:10:10;;;;;;;14.63;5.65;;;;;;;7.90;100.00;102567.19;4971035;28;20623;-69
2023/05/25 04:12:36;;;;;;;11.32;5.13;;;;;;;7.91;100.00;102568.88;4970831;28;20047;-69
2023/05/25 04:15:03;;;;;;;14.73;5.35;;;;;;;7.90;100.00;102569.84;4970821;28;20474;-70
2023/05/25 04:17:28;;;;;;;15.38;5.13;;;;;;;7.88;100.00;102569.97;4970864;28;20101;-70
2023/05/25 04:19:54;;;;;;;12.45;5.50;;;;;;;7.89;100.00;102566.34;4970671;28;20914;-70
2023/05/25 04:22:20;;;;;;;14.07;6.63;;;;;;;7.92;100.00;102564.41;4970904;28;20449;-69
2023/05/25 04:24:45;;;;;;;17.80;6.63;;;;;;;7.99;100.00;102566.38;4970811;28;20058;-69
2023/05/25 04:27:11;;;;;;;16.27;5.78;;;;;;;8.07;100.00;102577.16;4970678;28;20030;-69
2023/05/25 04:29:37;;;;;;;15.73;6.13;;;;;;;8.12;100.00;102572.28;4970594;28;20039;-69
2023/05/25 04:32:02;;;;;;;14.80;6.32;;;;;;;8.21;100.00;102573.25;4970534;28;20109;-69
2023/05/25 04:34:28;;;;;;;13.82;7.38;;;;;;;8.29;100.00;102568.09;4970418;28;20035;-70
2023/05/25 04:36:55;;;;;;;12.30;5.63;;;;;;;8.41;100.00;102583.91;4970438;28;20038;-70
2023/05/25 04:39:20;;;;;;;14.13;5.50;;;;;;;8.52;100.00;102586.47;4954139;28;20117;-69
2023/05/25 04:41:47;;;;;;;14.00;5.75;;;;;;;8.56;100.00;102575.38;4988991;28;20130;-69
2023/05/25 04:44:12;;;;;;;16.17;6.75;;;;;;;8.58;100.00;102579.75;4989018;28;20022;-69
2023/05/25 04:46:39;;;;;;;13.57;6.20;;;;;;;8.64;100.00;102579.16;4970233;28;20386;-69
2023/05/25 04:49:07;;;;;;;12.10;6.45;;;;;;;8.69;100.00;102580.41;4970382;28;20027;-69
2023/05/25 04:51:32;;;;;;;18.13;7.68;;;;;;;8.76;100.00;102589.50;4970424;28;20386;-69
2023/05/25 04:53:58;;;;;;;13.43;6.50;;;;;;;8.83;100.00;102583.63;4970605;28;20065;-69
2023/05/25 04:56:25;;;;;;;11.30;5.75;;;;;;;8.89;100.00;102580.41;4970335;28;20034;-69
2023/05/25 04:58:51;;;;;;;12.50;5.57;;;;;;;8.96;100.00;102586.81;4970396;28;20030;-69
2023/05/25 05:01:18;;;;;;;22.58;6.88;;;;;;;9.13;100.00;102602.06;4970155;28;20051;-69
2023/05/25 05:03:44;;;;;;;14.10;6.00;;;;;;;9.26;100.00;102604.41;4970703;28;20038;-69
2023/05/25 05:06:09;;;;;;;12.20;6.65;;;;;;;9.31;100.00;102602.16;4970376;28;20034;-69
2023/05/25 05:08:34;;;;;;;14.05;6.28;;;;;;;9.33;100.00;102602.03;4953136;28;20031;-69
2023/05/25 05:11:00;;;;;;;14.60;6.65;;;;;;;9.37;100.00;102598.06;4970446;28;20122;-69
2023/05/25 05:13:25;;;;;;;15.02;7.88;;;;;;;9.50;100.00;102597.72;4970606;28;20058;-69
2023/05/25 05:15:51;;;;;;;18.02;6.85;;;;;;;9.58;100.00;102603.16;4955646;28;20058;-69
2023/05/25 05:18:16;;;;;;;16.67;7.25;;;;;;;9.60;100.00;102596.72;4974439;28;20046;-69
2023/05/25 05:20:41;;;;;;;16.83;7.10;;;;;;;9.60;100.00;102595.88;4974136;28;20449;-69
2023/05/25 05:23:07;;;;;;;17.40;7.65;;;;;;;9.67;100.00;102602.31;4974379;28;20133;-69
2023/05/25 05:25:32;;;;;;;13.40;6.30;;;;;;;9.79;100.00;102601.09;4974201;28;20026;-69
2023/05/25 05:27:57;;;;;;;15.52;6.28;;;;;;;9.90;100.00;102613.38;4974360;28;20043;-69
2023/05/25 05:30:23;;;;;;;15.20;5.85;;;;;;;9.92;100.00;102611.41;4974029;28;20117;-69
2023/05/25 05:32:48;;;;;;;12.13;6.68;;;;;;;9.97;100.00;102614.47;4989517;28;20026;-69
2023/05/25 05:35:13;;;;;;;13.30;5.53;;;;;;;9.98;100.00;102621.50;4992242;28;20075;-69
2023/05/25 05:37:39;;;;;;;15.20;7.70;;;;;;;9.98;100.00;102621.50;4974925;28;20133;-69
2023/05/25 05:40:05;;;;;;;14.75;7.35;;;;;;;9.99;100.00;102614.34;4992505;28;20030;-69
2023/05/25 05:42:31;;;;;;;15.88;7.38;;;;;;;10.11;100.00;102623.78;4992366;28;20038;-69
2023/05/25 05:44:56;;;;;;;12.43;5.88;;;;;;;10.23;100.00;102622.59;4992587;28;20041;-69
2023/05/25 05:47:21;;;;;;;15.32;7.03;;;;;;;10.30;100.00;102637.03;4992414;28;20034;-69
2023/05/25 05:49:47;;;;;;;14.27;6.03;;;;;;;10.26;100.00;102627.63;4992424;28;20517;-69
2023/05/25 05:52:12;;;;;;;14.40;5.30;;;;;;;10.31;100.00;102632.53;4992228;28;20486;-70
2023/05/25 05:54:37;;;;;;;16.95;7.63;;;;;;;10.38;100.00;102635.44;4992294;28;20122;-71
2023/05/25 05:57:03;;;;;;;15.88;7.68;;;;;;;10.43;100.00;102642.00;4987170;28;20474;-71
2023/05/25 05:59:28;;;;;;;10.60;5.53;;;;;;;10.46;100.00;102644.38;4973345;28;20041;-71
2023/05/25 06:01:54;;;;;;;14.57;6.15;;;;;;;10.50;100.00;102644.88;4973455;28;20125;-71
2023/05/25 06:04:19;;;;;;;14.45;6.93;;;;;;;10.60;100.00;102642.16;4955924;28;20046;-71
2023/05/25 06:06:44;;;;;;;17.42;7.55;;;;;;;10.65;100.00;102647.88;4990216;28;20181;-71
2023/05/25 06:09:10;;;;;;;12.15;7.28;;;;;;;10.74;100.00;102645.13;4991764;28;20119;-71
2023/05/25 06:11:38;;;;;;;15.13;6.93;;;;;;;10.82;100.00;102649.72;4989553;28;20038;-71
2023/05/25 06:14:04;;;;;;;13.85;5.88;;;;;;;10.92;100.00;102652.25;4955908;28;20101;-71
2023/05/25 06:16:29;;;;;;;10.27;5.13;;;;;;;10.94;100.00;102648.44;4974845;28;20510;-71
2023/05/25 06:18:54;;;;;;;14.52;6.53;;;;;;;10.97;100.00;102653.47;4991645;28;20560;-71
2023/05/25 06:21:20;;;;;;;18.88;7.40;;;;;;;10.97;100.00;102655.31;4987972;28;20419;-71
2023/05/25 06:23:47;;;;;;;12.73;5.63;;;;;;;11.02;100.00;102657.53;4973376;28;20110;-71
2023/05/25 06:26:12;;;;;;;12.80;5.35;;;;;;;11.08;100.00;102659.56;4972767;28;20031;-71
2023/05/25 06:28:38;;;;;;;15.25;7.00;;;;;;;11.15;100.00;102665.97;4955307;28;20038;-71
2023/05/25 06:31:03;;;;;;;17.55;7.47;;;;;;;11.23;100.00;102660.69;4979629;28;20552;-70
2023/05/25 06:33:28;;;;;;;14.38;6.88;;;;;;;11.28;100.00;102671.75;4973924;28;20501;-72
2023/05/25 06:35:59;;;;;;;14.57;6.05;;;;;;;11.25;100.00;102664.03;4991469;28;20034;-72
2023/05/25 06:38:24;;;;;;;12.48;5.88;;;;;;;11.35;100.00;102675.47;4991510;28;20367;-72
2023/05/25 06:40:50;;;;;;;13.85;5.53;;;;;;;11.36;100.00;102676.28;4991303;28;20033;-73
2023/05/25 06:43:15;;;;;;;15.15;5.78;;;;;;;11.37;100.00;102677.97;4991468;28;20355;-73
2023/05/25 06:45:40;;;;;;;12.35;5.50;;;;;;;11.38;100.00;102685.84;4991271;28;20068;-74
2023/05/25 06:48:06;;;;;;;14.07;5.00;;;;;;;11.37;100.00;102678.81;4990997;28;20045;-72
2023/05/25 06:50:31;;;;;;;15.30;5.97;;;;;;;11.44;100.00;102684.38;4991128;28;20054;-74
2023/05/25 06:52:56;;;;;;;9.85;5.47;;;;;;;11.45;100.00;102680.72;4991297;28;20030;-70
2023/05/25 06:55:22;;;;;;;14.32;6.75;;;;;;;11.57;100.00;102690.13;4990901;28;20038;-70
2023/05/25 06:57:47;;;;;;;10.45;5.72;;;;;;;11.66;100.00;102691.03;4990708;28;20080;-72
2023/05/25 07:00:13;;;;;;;15.27;7.18;;;;;;;11.74;100.00;102698.25;4990908;28;20208;-72
2023/05/25 07:02:38;;;;;;;12.95;5.82;;;;;;;11.83;100.00;102687.44;4973418;28;20407;-72
2023/05/25 07:05:05;;;;;;;15.02;6.05;;;;;;;11.89;100.00;102696.66;4990814;28;20077;-73
2023/05/25 07:07:31;;;;;;;9.63;5.75;;;;;;;11.97;100.00;102691.38;4990011;28;20030;-72
2023/05/25 07:09:57;;;;;;;13.77;5.95;;;;;;;12.05;100.00;102688.75;4990718;28;20033;-72
2023/05/25 07:12:22;;;;;;;12.48;4.60;;;;;;;12.14;98.17;102688.78;4990799;28;20034;-72
2023/05/25 07:14:47;;;;;;;10.82;4.28;;;;;;;12.19;96.59;102689.13;4990581;28;20034;-72
2023/05/25 07:17:14;;;;;;;13.10;4.28;;;;;;;12.22;96.42;102691.47;4983111;28;20037;-73
2023/05/25 07:19:41;;;;;;;13.85;4.90;;;;;;;12.33;95.96;102695.69;4972340;28;20031;-73
2023/05/25 07:22:06;;;;;;;14.23;5.13;;;;;;;12.32;94.20;102686.00;4971928;28;20027;-73
2023/05/25 07:24:32;;;;;;;13.20;4.93;;;;;;;12.46;95.99;102690.69;4938632;28;20409;-73
2023/05/25 07:26:57;;;;;;;14.77;4.38;;;;;;;12.53;93.92;102696.25;4972067;28;20089;-73
2023/05/25 07:29:22;;;;;;;11.95;4.57;;;;;;;12.63;93.37;102695.09;4972908;28;20502;-73
2023/05/25 07:31:48;;;;;;;11.13;4.38;;;;;;;12.72;93.00;102695.94;4990240;28;20030;-72
2023/05/25 07:34:14;;;;;;;12.68;5.07;;;;;;;12.70;92.82;102693.41;4981323;28;20473;-73
2023/05/25 07:36:39;;;;;;;12.23;4.95;;;;;;;12.83;91.61;102700.13;4986826;28;20038;-70
2023/05/25 07:39:04;;;;;;;11.52;4.28;;;;;;;12.84;89.51;102697.28;4986156;28;20148;-77
2023/05/25 07:41:30;;;;;;;11.48;4.90;;;;;;;12.91;88.92;102703.63;4980109;28;20061;-72
2023/05/25 07:43:55;;;;;;;12.13;4.82;;;;;;;13.03;89.74;102706.84;4980722;28;20023;-70
2023/05/25 07:46:23;;;;;;;18.63;4.85;;;;;;;13.09;89.78;102700.78;4980968;28;20034;-73
2023/05/25 07:48:49;;;;;;;11.05;3.97;;;;;;;13.08;88.34;102704.50;4981645;28;20034;-71
2023/05/25 07:51:15;;;;;;;12.82;4.93;;;;;;;13.18;88.45;102709.69;4962953;28;20730;-70
2023/05/25 07:53:41;;;;;;;11.38;4.93;;;;;;;13.29;88.04;102708.53;4980243;28;20035;-70
2023/05/25 07:56:07;;;;;;;12.07;5.10;;;;;;;13.50;88.92;102716.06;4964031;28;20042;-70
2023/05/25 07:58:32;;;;;;;12.27;5.05;;;;;;;13.63;86.79;102710.16;4974963;28;20046;-72
2023/05/25 08:00:58;;;;;;;9.57;4.50;;;;;;;13.67;85.77;102716.84;4969605;28;20549;-71
2023/05/25 08:03:23;;;;;;;14.30;3.88;;;;;;;13.66;85.87;102720.53;4969563;28;20719;-72
2023/05/25 08:05:48;;;;;;;12.73;4.55;;;;;;;13.67;86.70;102714.16;4968944;28;20053;-71
2023/05/25 08:08:14;;;;;;;7.65;3.22;;;;;;;13.77;85.49;102717.50;4951592;28;20030;-72
2023/05/25 08:10:39;;;;;;;11.18;4.22;;;;;;;14.02;83.53;102719.09;4969348;28;20027;-72
2023/05/25 08:13:04;;;;;;;9.30;4.45;;;;;;;14.37;80.85;102710.72;4969038;28;20042;-73
2023/05/25 08:15:30;;;;;;;9.57;3.40;;;;;;;15.07;78.54;102723.22;4969062;28;20038;-72
2023/05/25 08:17:55;;;;;;;11.13;4.75;;;;;;;15.71;75.23;102715.53;4969597;28;20584;-72
2023/05/25 08:20:22;;;;;;;12.27;4.75;;;;;;;17.20;69.36;102720.59;4971029;28;20031;-72
2023/05/25 08:22:48;;;;;;;14.55;4.38;;;;;;;18.67;65.20;102725.72;4953356;28;20089;-72
2023/05/25 08:25:14;;;;;;;12.77;4.78;;;;;;;18.96;60.95;102718.31;4970729;28;20140;-72
2023/05/25 08:27:39;;;;;;;8.73;3.33;;;;;;;19.64;58.77;102727.00;4970681;28;20035;-72
2023/05/25 08:30:05;;;;;;;11.98;4.80;;;;;;;20.53;54.85;102720.03;4970589;28;20038;-72
2023/05/25 08:32:30;;;;;;;10.55;3.92;;;;;;;20.56;53.14;102729.63;4953191;28;20041;-72
2023/05/25 08:34:56;;;;;;;14.13;4.68;;;;;;;20.19;54.57;102725.84;4970819;28;20062;-72
2023/05/25 08:37:23;;;;;;;10.02;4.03;;;;;;;19.75;55.84;102714.72;4970693;28;20050;-72
2023/05/25 08:39:49;;;;;;;14.02;4.63;;;;;;;20.29;53.74;102720.78;4970561;28;20027;-72
2023/05/25 08:42:14;;;;;;;9.00;3.15;;;;;;;20.40;53.73;102727.41;4953190;28;20037;-72
2023/05/25 08:44:40;;;;;;;8.85;4.15;;;;;;;20.58;53.51;102731.09;4970663;28;20154;-72
2023/05/25 08:47:06;;;;;;;6.43;3.40;;;;;;;21.47;50.75;102731.06;4970660;28;20463;-72
2023/05/25 08:49:37;;;;;;;11.38;5.25;;;;;;;21.22;51.32;102729.19;4971364;28;20194;-72
2023/05/25 08:52:03;;;;;;;8.05;3.60;;;;;;;20.33;54.20;102728.28;4974574;28;20050;-72
2023/05/25 08:54:35;;;;;;;9.55;3.10;;;;;;;19.43;57.46;102732.66;4974263;28;20070;-72
2023/05/25 08:57:06;;;;;;;;;;;;;;;18.80;60.01;102725.78;4974918;28;20031;-71
2023/05/25 08:59:50;;;;;;;8.13;3.70;;;;;;;17.50;63.48;102735.56;4974800;28;19914;-72
2023/05/25 09:02:33;;;;;;;13.70;5.60;;;;;;;16.64;65.57;102743.66;4974506;28;20053;-71
2023/05/25 09:05:00;;;;;;;11.70;3.90;;;;;;;15.85;69.55;102739.94;4974312;28;20057;-72
2023/05/25 09:07:27;;;;;;;10.45;4.20;;;;;;;15.54;69.97;102731.00;4974209;28;20676;-72
2023/05/25 09:09:53;;;;;;;11.85;3.63;;;;;;;15.34;71.88;102741.44;4974421;28;20038;-71
2023/05/25 09:12:20;;;;;;;5.60;3.08;;;;;;;15.23;74.39;102749.13;4974157;28;20482;-71
2023/05/25 09:14:46;;;;;;;9.68;4.32;;;;;;;15.22;73.58;102737.53;4974091;28;20031;-72
2023/05/25 09:17:16;;;;;;;9.60;3.88;;;;;;;15.26;71.96;102736.13;4974117;28;20092;-72
2023/05/25 09:19:41;;;;;;;7.22;3.17;;;;;;;15.38;72.23;102739.25;4973935;28;20070;-72
2023/05/25 09:22:09;;;;;;;12.00;4.68;;;;;;;15.43;72.49;102733.28;4973997;28;20090;-72
2023/05/25 09:24:35;;;;;;;8.07;3.10;;;;;;;15.61;72.19;102739.16;4973991;28;20478;-72
2023/05/25 09:27:02;;;;;;;9.20;3.33;;;;;;;15.52;71.40;102735.72;4973815;28;20030;-72
2023/05/25 09:29:28;;;;;;;8.43;3.47;;;;;;;15.55;71.60;102737.22;4973796;28;20050;-72
2023/05/25 09:31:55;;;;;;;15.55;3.83;;;;;;;15.46;70.42;102732.94;4973796;28;20113;-72
2023/05/25 09:34:20;;;;;;;6.53;3.13;;;;;;;15.30;69.42;102750.03;4973648;28;20027;-72
2023/05/25 09:36:46;;;;;;;7.43;2.95;;;;;;;15.03;71.38;102754.13;4973692;28;20430;-72
2023/05/25 09:39:12;;;;;;;5.22;2.40;;;;;;;14.94;70.53;102748.00;4973697;28;20505;-72
2023/05/25 09:41:41;;;;;;;9.98;4.32;;;;;;;14.75;70.15;102749.31;4956135;28;20061;-72
2023/05/25 09:44:06;;;;;;;8.38;2.85;;;;;;;14.77;70.88;102741.03;4973746;28;20045;-71
2023/05/25 09:46:35;;;;;;;4.63;2.42;;;;;;;14.84;71.83;102745.53;4973528;28;20022;-72
2023/05/25 09:49:03;;;;;;;9.15;3.25;;;;;;;14.99;71.38;102747.47;4973654;28;20467;-72
2023/05/25 09:51:32;;;;;;;15.80;3.50;;;;;;;15.08;71.67;102741.00;4973738;28;20027;-72
2023/05/25 09:53:59;;;;;;;5.63;2.40;;;;;;;14.99;69.50;102748.28;4973519;28;20035;-72
2023/05/25 09:56:26;;;;;;;8.57;3.67;;;;;;;14.94;70.23;102739.09;4973374;28;20035;-71
2023/05/25 09:58:52;;;;;;;6.65;3.13;;;;;;;14.96;70.84;102745.97;4973267;28;20508;-72
2023/05/25 10:01:18;;;;;;;6.57;3.15;;;;;;;14.88;71.16;102737.94;4972513;28;20087;-72
2023/05/25 10:03:49;;;;;;;13.35;3.53;;;;;;;14.85;71.75;102760.63;4973317;28;20053;-72
2023/05/25 10:06:15;;;;;;;6.35;3.15;;;;;;;14.65;73.11;102743.31;4973385;28;20047;-72
2023/05/25 10:08:43;;;;;;;12.98;4.78;;;;;;;14.64;71.13;102758.56;4973363;28;20030;-72
2023/05/25 10:11:12;;;;;;;9.52;3.47;;;;;;;14.62;70.84;102754.41;4973094;28;20066;-72
2023/05/25 10:13:38;;;;;;;6.93;3.17;;;;;;;14.66;70.95;102755.72;4972776;28;20031;-72
2023/05/25 10:16:06;;;;;;;7.00;2.60;;;;;;;14.80;70.78;102756.81;4991979;28;20027;-72
2023/05/25 10:18:35;;;;;;;7.80;2.90;;;;;;;14.94;70.95;102749.84;4991673;28;20066;-71
2023/05/25 10:21:03;;;;;;;9.57;3.78;;;;;;;15.17;72.11;102745.31;4991735;28;20437;-71
2023/05/25 10:23:36;;;;;;;9.90;4.15;;;;;;;15.38;70.09;102749.13;4991449;28;20023;-72
2023/05/25 10:26:03;;;;;;;7.93;3.38;;;;;;;15.60;69.54;102750.13;4991762;28;20026;-74
2023/05/25 10:28:34;;;;;;;4.70;3.03;;;;;;;15.68;68.77;102750.03;4973813;28;20038;-75
2023/05/25 10:31:01;;;;;;;7.40;3.53;;;;;;;15.60;69.32;102744.75;4991320;28;20041;-74
2023/05/25 10:33:28;;;;;;;8.43;3.65;;;;;;;15.62;70.38;102754.28;4991331;28;20061;-75
2023/05/25 10:35:54;;;;;;;7.72;3.55;;;;;;;15.57;69.59;102754.00;4991193;28;20034;-75
2023/05/25 10:38:21;;;;;;;9.45;4.28;;;;;;;15.58;68.79;102758.34;4991266;28;20040;-74
2023/05/25 10:40:47;;;;;;;10.68;4.25;;;;;;;15.47;68.74;102754.25;4991177;28;20129;-74
2023/05/25 10:43:14;;;;;;;21.55;5.50;;;;;;;15.42;68.49;102759.34;4982587;28;20023;-71
2023/05/25 10:45:41;;;;;;;9.02;3.58;;;;;;;15.34;70.00;102754.88;4980987;28;20429;-73
2023/05/25 10:48:06;;;;;;;9.43;3.67;;;;;;;15.42;70.18;102755.84;4963361;28;20114;-73
2023/05/25 10:50:34;;;;;;;9.30;3.38;;;;;;;15.51;69.51;102746.66;4963610;28;20117;-73
2023/05/25 10:53:02;;;;;;;6.53;3.50;;;;;;;15.59;68.76;102753.81;4979397;28;20150;-73
2023/05/25 10:55:40;;;;;;;9.38;4.43;;;;;;;15.63;70.58;102760.50;4980742;28;20533;-75
2023/05/25 10:58:13;;;;;;;8.25;3.72;;;;;;;15.66;69.93;102752.06;4980673;28;20038;-71
2023/05/25 11:00:39;;;;;;;9.85;4.38;;;;;;;15.86;69.68;102753.22;4980199;28;20046;-72
2023/05/25 11:03:05;;;;;;;7.53;4.05;;;;;;;16.17;71.82;102744.97;4981332;28;20034;-72
2023/05/25 11:05:36;;;;;;;13.43;5.18;;;;;;;16.25;65.64;102745.91;4980204;28;20498;-73
2023/05/25 11:08:07;;;;;;;11.05;4.03;;;;;;;16.22;66.32;102747.09;4980707;28;20035;-72
2023/05/25 11:10:51;;;;;;;8.40;4.33;;;;;;;16.08;67.35;102748.75;4981032;28;21190;-73
2023/05/25 11:13:37;;;;;;;10.35;4.88;;;;;;;16.00;67.94;102743.47;4979637;28;20069;-73
2023/05/25 11:16:13;;;;;;;11.50;4.97;;;;;;;15.90;69.37;102749.16;4980256;28;20030;-72